createdAt,value
2023-05-25T00:01:01.096Z,95921.19
2023-05-25T00:02:05.311Z,95930.25
2023-05-25T00:03:09.981Z,95925.19
2023-05-25T00:04:16.983Z,95925.97
2023-05-25T00:05:20.958Z,95933.94
2023-05-25T00:06:23.045Z,95925.66
2023-05-25T00:07:26.112Z,95924.41
2023-05-25T00:08:28.343Z,95917.34
2023-05-25T00:09:31.409Z,95910.31
2023-05-25T00:10:33.401Z,95918.13
2023-05-25T00:11:36.319Z,95911.84
2023-05-25T00:12:38.251Z,95916.59
2023-05-25T00:13:41.724Z,95917.34
2023-05-25T00:14:43.630Z,95919.69
2023-05-25T00:15:46.644Z,95916.13
2023-05-25T00:16:48.954Z,95918.88
2023-05-25T00:17:54.591Z,95925.19
2023-05-25T00:18:57.539Z,95922.13
2023-05-25T00:20:08.012Z,95922.88
2023-05-25T00:21:10.698Z,95924.13
2023-05-25T00:22:13.656Z,95919.81
2023-05-25T00:23:16.289Z,95918.88
2023-05-25T00:24:19.335Z,95923.81
2023-05-25T00:25:21.355Z,95927.00
2023-05-25T00:26:24.283Z,95917.97
2023-05-25T00:27:26.265Z,95915.66
2023-05-25T00:28:29.225Z,95924.38
2023-05-25T00:29:31.069Z,95918.56
2023-05-25T00:30:33.967Z,95918.25
2023-05-25T00:31:36.671Z,95923.47
2023-05-25T00:32:39.767Z,95913.19
2023-05-25T00:33:41.689Z,95917.19
2023-05-25T00:34:44.605Z,95913.94
2023-05-25T00:35:48.183Z,95921.03
2023-05-25T00:36:51.961Z,95921.03
2023-05-25T00:37:53.920Z,95918.25
2023-05-25T00:38:56.975Z,95917.03
2023-05-25T00:39:58.916Z,95914.25
2023-05-25T00:41:03.398Z,95913.81
2023-05-25T00:42:07.381Z,95912.25
2023-05-25T00:43:10.942Z,95909.06
2023-05-25T00:44:14.857Z,95914.56
2023-05-25T00:45:18.537Z,95913.81
2023-05-25T00:46:20.651Z,95907.53
2023-05-25T00:47:23.734Z,95907.53
2023-05-25T00:48:26.430Z,95907.53
2023-05-25T00:49:30.974Z,95911.38
2023-05-25T00:50:40.768Z,95913.06
2023-05-25T00:51:46.633Z,95907.53
2023-05-25T00:52:49.731Z,95900.47
2023-05-25T00:53:52.820Z,95902.78
2023-05-25T00:55:00.798Z,95903.22
2023-05-25T00:56:09.387Z,95903.22
2023-05-25T00:57:14.599Z,95912.75
2023-05-25T00:58:23.085Z,95905.97
2023-05-25T00:59:31.935Z,95905.22
2023-05-25T01:00:36.884Z,95909.97
2023-05-25T01:01:40.906Z,95911.19
2023-05-25T01:02:45.951Z,95907.66
2023-05-25T01:03:53.691Z,95906.91
2023-05-25T01:04:59.715Z,95909.34
2023-05-25T01:06:04.428Z,95910.09
2023-05-25T01:07:12.899Z,95912.09
2023-05-25T01:08:17.363Z,95912.56
2023-05-25T01:09:23.400Z,95912.56
2023-05-25T01:10:26.684Z,95914.56
2023-05-25T01:11:33.799Z,95910.28
2023-05-25T01:12:38.527Z,95910.28
2023-05-25T01:13:42.724Z,95912.25
2023-05-25T01:14:48.117Z,95914.25
2023-05-25T01:15:52.319Z,95914.25
2023-05-25T01:16:56.769Z,95912.72
2023-05-25T01:17:59.403Z,95918.22
2023-05-25T01:19:04.827Z,95910.41
2023-05-25T01:20:11.638Z,95907.63
2023-05-25T01:21:22.970Z,95908.41
2023-05-25T01:22:28.981Z,95912.41
2023-05-25T01:23:36.527Z,95904.13
2023-05-25T01:24:44.451Z,95908.09
2023-05-25T01:25:52.602Z,95906.56
2023-05-25T01:26:58.227Z,95902.56
2023-05-25T01:28:07.517Z,95908.09
2023-05-25T01:29:11.908Z,95913.59
2023-05-25T01:30:17.827Z,95911.63
2023-05-25T01:31:22.602Z,95913.59
2023-05-25T01:32:26.385Z,95917.59
2023-05-25T01:33:30.054Z,95925.56
2023-05-25T01:34:33.723Z,95921.56
2023-05-25T01:35:36.931Z,95921.28
2023-05-25T01:36:41.613Z,95914.22
2023-05-25T01:37:46.224Z,95916.97
2023-05-25T01:38:50.019Z,95915.44
2023-05-25T01:39:51.923Z,95913.91
2023-05-25T01:40:55.067Z,95912.38
2023-05-25T01:41:57.825Z,95906.84
2023-05-25T01:43:00.785Z,95915.91
2023-05-25T01:44:03.135Z,95902.53
2023-05-25T01:45:07.520Z,95906.84
2023-05-25T01:46:16.731Z,95912.81
2023-05-25T01:47:24.552Z,95916.03
2023-05-25T01:48:38.024Z,95916.34
2023-05-25T01:49:47.461Z,95910.50
2023-05-25T01:50:54.596Z,95916.03
2023-05-25T01:52:07.377Z,95913.25
2023-05-25T01:53:10.798Z,95918.03
2023-05-25T01:54:20.673Z,95913.25
2023-05-25T01:55:28.954Z,95914.50
2023-05-25T01:56:33.621Z,95917.25
2023-05-25T01:57:38.681Z,95918.50
2023-05-25T01:58:44.745Z,95915.72
2023-05-25T01:59:47.982Z,95916.94
2023-05-25T02:00:52.652Z,95910.66
2023-05-25T02:01:55.201Z,95913.88
2023-05-25T02:02:59.005Z,95918.94
2023-05-25T02:04:01.381Z,95922.13
2023-05-25T02:05:04.888Z,95922.13
2023-05-25T02:06:08.218Z,95916.19
2023-05-25T02:07:12.934Z,95916.63
2023-05-25T02:08:14.877Z,95912.66
2023-05-25T02:09:17.793Z,95912.66
2023-05-25T02:10:19.832Z,95908.81
2023-05-25T02:11:22.707Z,95907.59
2023-05-25T02:12:24.732Z,95909.56
2023-05-25T02:13:27.787Z,95910.78
2023-05-25T02:14:29.803Z,95913.53
2023-05-25T02:15:34.875Z,95901.75
2023-05-25T02:16:37.458Z,95908.03
2023-05-25T02:17:40.400Z,95902.50
2023-05-25T02:18:44.697Z,95896.97
2023-05-25T02:19:50.447Z,95896.97
2023-05-25T02:20:54.618Z,95895.47
2023-05-25T02:21:58.005Z,95899.44
2023-05-25T02:23:02.092Z,95899.44
2023-05-25T02:24:05.514Z,95890.38
2023-05-25T02:25:09.140Z,95897.91
2023-05-25T02:26:12.074Z,95898.34
2023-05-25T02:27:14.140Z,95894.81
2023-05-25T02:28:17.056Z,95890.53
2023-05-25T02:29:19.007Z,95886.56
2023-05-25T02:30:22.781Z,95892.50
2023-05-25T02:31:24.695Z,95891.75
2023-05-25T02:32:29.517Z,95889.00
2023-05-25T02:33:31.670Z,95893.75
2023-05-25T02:34:34.654Z,95891.75
2023-05-25T02:35:36.634Z,95899.59
2023-05-25T02:36:39.778Z,95895.75
2023-05-25T02:37:42.746Z,95891.00
2023-05-25T02:38:47.448Z,95892.22
2023-05-25T02:39:50.576Z,95888.69
2023-05-25T02:40:52.720Z,95888.69
2023-05-25T02:41:56.915Z,95887.16
2023-05-25T02:42:59.033Z,95882.84
2023-05-25T02:44:02.112Z,95884.84
2023-05-25T02:45:10.493Z,95884.84
2023-05-25T02:46:15.043Z,95886.84
2023-05-25T02:47:18.085Z,95888.06
2023-05-25T02:48:22.129Z,95883.75
2023-05-25T02:49:24.150Z,95886.50
2023-05-25T02:50:27.033Z,95888.06
2023-05-25T02:51:33.566Z,95887.28
2023-05-25T02:52:36.575Z,95888.97
2023-05-25T02:53:38.469Z,95893.72
2023-05-25T02:54:42.779Z,95903.22
2023-05-25T02:55:48.670Z,95898.91
2023-05-25T02:56:55.082Z,95898.91
2023-05-25T02:57:58.179Z,95895.50
2023-05-25T02:59:19.714Z,95897.06
2023-05-25T03:00:21.963Z,95903.34
2023-05-25T03:01:25.543Z,95895.06
2023-05-25T03:02:30.889Z,95901.81
2023-05-25T03:03:33.977Z,95893.56
2023-05-25T03:04:38.004Z,95902.59
2023-05-25T03:05:41.126Z,95902.59
2023-05-25T03:06:43.316Z,95904.59
2023-05-25T03:07:50.542Z,95900.59
2023-05-25T03:08:52.506Z,95904.09
2023-05-25T03:09:56.751Z,95902.59
2023-05-25T03:10:58.783Z,95897.84
2023-05-25T03:12:02.482Z,95897.84
2023-05-25T03:13:04.404Z,95896.59
2023-05-25T03:14:07.867Z,95882.81
2023-05-25T03:15:13.202Z,95902.91
2023-05-25T03:16:16.261Z,95899.34
2023-05-25T03:17:18.229Z,95906.44
2023-05-25T03:18:21.494Z,95900.16
2023-05-25T03:19:23.498Z,95898.59
2023-05-25T03:20:26.612Z,95903.34
2023-05-25T03:21:28.975Z,95898.59
2023-05-25T03:22:32.034Z,95904.59
2023-05-25T03:23:33.977Z,95908.09
2023-05-25T03:24:41.496Z,95902.59
2023-05-25T03:25:46.041Z,95907.34
2023-05-25T03:26:49.510Z,95906.88
2023-05-25T03:27:52.782Z,95910.09
2023-05-25T03:28:55.910Z,95907.34
2023-05-25T03:29:57.860Z,95906.09
2023-05-25T03:31:01.431Z,95908.88
2023-05-25T03:32:04.249Z,95911.63
2023-05-25T03:33:09.757Z,95911.63
2023-05-25T03:34:17.733Z,95902.59
2023-05-25T03:35:20.605Z,95907.34
2023-05-25T03:36:27.526Z,95908.88
2023-05-25T03:37:29.508Z,95907.34
2023-05-25T03:38:33.548Z,95907.34
2023-05-25T03:39:35.629Z,95910.09
2023-05-25T03:40:38.535Z,95910.09
2023-05-25T03:41:43.109Z,95908.88
2023-05-25T03:42:46.556Z,95908.88
2023-05-25T03:43:48.457Z,95910.38
2023-05-25T03:44:51.440Z,95902.13
2023-05-25T03:45:53.572Z,95907.63
2023-05-25T03:46:56.774Z,95903.34
2023-05-25T03:47:58.809Z,95906.88
2023-05-25T03:49:01.859Z,95904.09
2023-05-25T03:50:07.396Z,95904.88
2023-05-25T03:51:10.471Z,95903.34
2023-05-25T03:52:12.464Z,95910.38
2023-05-25T03:53:15.839Z,95914.38
2023-05-25T03:54:18.442Z,95914.38
2023-05-25T03:55:23.759Z,95910.38
2023-05-25T03:56:26.400Z,95918.66
2023-05-25T03:57:30.643Z,95921.44
2023-05-25T03:58:34.226Z,95922.22
2023-05-25T03:59:37.176Z,95915.91
2023-05-25T04:00:39.114Z,95917.91
2023-05-25T04:01:42.205Z,95914.38
2023-05-25T04:02:44.288Z,95913.63
2023-05-25T04:03:47.570Z,95917.91
2023-05-25T04:04:52.057Z,95920.66
2023-05-25T04:05:55.042Z,95925.41
2023-05-25T04:06:59.827Z,95919.91
2023-05-25T04:08:03.296Z,95925.41
2023-05-25T04:09:05.237Z,95928.19
2023-05-25T04:10:10.124Z,95926.94
2023-05-25T04:11:12.351Z,95929.69
2023-05-25T04:12:15.747Z,95929.69
2023-05-25T04:13:19.082Z,95931.69
2023-05-25T04:14:22.044Z,95937.97
2023-05-25T04:15:25.113Z,95932.47
2023-05-25T04:16:45.722Z,95933.25
2023-05-25T04:17:49.329Z,95938.78
2023-05-25T04:18:52.450Z,95936.78
2023-05-25T04:19:56.329Z,95935.53
2023-05-25T04:20:59.344Z,95941.06
2023-05-25T04:22:01.814Z,95934.78
2023-05-25T04:23:04.803Z,95936.78
2023-05-25T04:24:09.086Z,95939.84
2023-05-25T04:25:12.181Z,95934.78
2023-05-25T04:26:15.641Z,95936.34
2023-05-25T04:27:20.289Z,95930.03
2023-05-25T04:28:23.937Z,95935.53
2023-05-25T04:29:51.111Z,95935.53
2023-05-25T04:31:10.000Z,95940.28
2023-05-25T04:32:17.917Z,95933.56
2023-05-25T04:33:47.131Z,95935.53
2023-05-25T04:34:59.559Z,95939.53
2023-05-25T04:36:11.027Z,95931.84
2023-05-25T04:37:13.059Z,95930.28
2023-05-25T04:38:17.660Z,95935.81
2023-05-25T04:39:20.724Z,95932.72
2023-05-25T04:40:28.569Z,95931.53
2023-05-25T04:41:31.474Z,95939.81
2023-05-25T04:42:37.984Z,95931.53
2023-05-25T04:44:03.576Z,95938.56
2023-05-25T04:45:10.269Z,95936.13
2023-05-25T04:46:13.791Z,95934.94
2023-05-25T04:47:19.241Z,95933.69
2023-05-25T04:48:21.594Z,95944.28
2023-05-25T04:49:24.993Z,95943.50
2023-05-25T04:50:27.987Z,95937.97
2023-05-25T04:51:30.586Z,95940.88
2023-05-25T04:52:34.510Z,95935.97
2023-05-25T04:53:36.912Z,95935.50
2023-05-25T04:54:41.784Z,95927.22
2023-05-25T04:55:44.449Z,95935.81
2023-05-25T04:56:47.789Z,95932.13
2023-05-25T04:57:49.750Z,95932.56
2023-05-25T04:58:54.334Z,95936.84
2023-05-25T04:59:56.306Z,95933.66
2023-05-25T05:00:59.294Z,95935.00
2023-05-25T05:02:01.251Z,95935.03
2023-05-25T05:03:05.465Z,95940.03
2023-05-25T05:04:07.809Z,95938.72
2023-05-25T05:05:11.172Z,95935.84
2023-05-25T05:06:13.085Z,95934.16
2023-05-25T05:07:16.111Z,95934.03
2023-05-25T05:08:18.484Z,95941.88
2023-05-25T05:09:21.608Z,95953.22
2023-05-25T05:10:24.319Z,95949.81
2023-05-25T05:11:31.986Z,95954.34
2023-05-25T05:12:34.382Z,95943.91
2023-05-25T05:13:38.910Z,95948.81
2023-05-25T05:14:43.209Z,95951.59
2023-05-25T05:15:45.293Z,95952.75
2023-05-25T05:16:48.476Z,95957.03
2023-05-25T05:17:50.836Z,95950.66
2023-05-25T05:18:53.874Z,95953.25
2023-05-25T05:19:56.003Z,95954.28
2023-05-25T05:21:00.036Z,95960.72
2023-05-25T05:22:02.336Z,95953.91
2023-05-25T05:23:06.043Z,95954.69
2023-05-25T05:24:08.988Z,95956.97
2023-05-25T05:25:11.994Z,95955.31
2023-05-25T05:26:15.238Z,95958.53
2023-05-25T05:27:20.755Z,95956.09
2023-05-25T05:28:29.837Z,95948.63
2023-05-25T05:29:34.261Z,95957.06
2023-05-25T05:30:37.664Z,95954.00
2023-05-25T05:31:40.695Z,95959.28
2023-05-25T05:32:44.655Z,95961.06
2023-05-25T05:33:49.616Z,95961.75
2023-05-25T05:34:53.401Z,95962.28
2023-05-25T05:36:09.044Z,95965.91
2023-05-25T05:37:12.013Z,95963.66
2023-05-25T05:38:15.045Z,95966.16
2023-05-25T05:39:17.588Z,95964.69
2023-05-25T05:40:21.251Z,95962.22
2023-05-25T05:41:23.496Z,95972.50
2023-05-25T05:42:27.042Z,95967.94
2023-05-25T05:43:28.966Z,95974.41
2023-05-25T05:44:31.992Z,95971.09
2023-05-25T05:45:33.951Z,95970.22
2023-05-25T05:46:38.303Z,95973.16
2023-05-25T05:47:40.714Z,95974.56
2023-05-25T05:48:43.975Z,95976.41
2023-05-25T05:49:47.346Z,95969.22
2023-05-25T05:50:52.497Z,95973.66
2023-05-25T05:51:54.969Z,95972.75
2023-05-25T05:52:58.074Z,95971.88
2023-05-25T05:54:00.754Z,95982.00
2023-05-25T05:55:03.686Z,95980.59
2023-05-25T05:56:07.168Z,95981.25
2023-05-25T05:57:10.177Z,95981.13
2023-05-25T05:58:12.251Z,95982.66
2023-05-25T05:59:15.298Z,95982.66
2023-05-25T06:00:18.447Z,95978.81
2023-05-25T06:01:23.446Z,95974.38
2023-05-25T06:02:26.948Z,95977.91
2023-05-25T06:03:30.012Z,95977.13
2023-05-25T06:04:33.026Z,95974.06
2023-05-25T06:05:36.045Z,95975.59
2023-05-25T06:06:40.478Z,95977.28
2023-05-25T06:07:43.849Z,95975.72
2023-05-25T06:08:47.247Z,95983.56
2023-05-25T06:09:50.189Z,95981.38
2023-05-25T06:10:52.289Z,95979.16
2023-05-25T06:11:55.898Z,95990.50
2023-05-25T06:12:57.886Z,95979.31
2023-05-25T06:14:00.891Z,95992.00
2023-05-25T06:15:04.710Z,95979.75
2023-05-25T06:16:07.334Z,95984.06
2023-05-25T06:17:10.456Z,95984.06
2023-05-25T06:18:14.052Z,95982.81
2023-05-25T06:19:17.067Z,95982.72
2023-05-25T06:20:19.089Z,95976.28
2023-05-25T06:21:23.183Z,95988.44
2023-05-25T06:22:28.114Z,95975.88
2023-05-25T06:23:32.421Z,95976.63
2023-05-25T06:24:34.409Z,95981.25
2023-05-25T06:25:37.400Z,95978.03
2023-05-25T06:26:39.311Z,95982.66
2023-05-25T06:27:42.394Z,95977.47
2023-05-25T06:28:46.869Z,95980.84
2023-05-25T06:29:49.787Z,95978.88
2023-05-25T06:30:51.733Z,95989.13
2023-05-25T06:31:54.693Z,95984.22
2023-05-25T06:32:57.115Z,95978.69
2023-05-25T06:34:03.090Z,95984.53
2023-05-25T06:35:07.965Z,95989.56
2023-05-25T06:36:11.810Z,95992.00
2023-05-25T06:37:14.920Z,95991.25
2023-05-25T06:38:18.324Z,95986.81
2023-05-25T06:39:20.336Z,95988.94
2023-05-25T06:40:23.743Z,95999.97
2023-05-25T06:41:26.174Z,95999.97
2023-05-25T06:42:30.164Z,96001.06
2023-05-25T06:43:32.499Z,95996.66
2023-05-25T06:44:53.626Z,96002.78
2023-05-25T06:45:56.641Z,96001.97
2023-05-25T06:46:58.688Z,95999.84
2023-05-25T06:48:01.676Z,96000.59
2023-05-25T06:49:06.178Z,96002.94
2023-05-25T06:50:10.457Z,96010.88
2023-05-25T06:51:12.345Z,95998.31
2023-05-25T06:52:15.198Z,95995.25
2023-05-25T06:53:17.396Z,95994.78
2023-05-25T06:54:20.768Z,96002.28
2023-05-25T06:55:23.999Z,95999.19
2023-05-25T06:56:27.938Z,95992.47
2023-05-25T06:57:31.434Z,95989.56
2023-05-25T06:58:33.376Z,95998.19
2023-05-25T06:59:36.294Z,96000.50
2023-05-25T07:00:38.239Z,96003.19
2023-05-25T07:01:41.346Z,96009.47
2023-05-25T07:02:44.289Z,96008.06
2023-05-25T07:03:47.248Z,96001.91
2023-05-25T07:04:51.555Z,96008.97
2023-05-25T07:05:54.636Z,96006.72
2023-05-25T07:06:57.578Z,96003.88
2023-05-25T07:08:00.708Z,96009.72
2023-05-25T07:09:02.738Z,96015.09
2023-05-25T07:10:06.824Z,96016.97
2023-05-25T07:11:10.639Z,96006.28
2023-05-25T07:12:14.567Z,96013.31
2023-05-25T07:13:17.530Z,96010.88
2023-05-25T07:14:19.513Z,96009.34
2023-05-25T07:15:22.838Z,96015.09
2023-05-25T07:16:25.630Z,96003.03
2023-05-25T07:17:31.558Z,96010.88
2023-05-25T07:18:34.560Z,96008.13
2023-05-25T07:19:36.601Z,96006.13
2023-05-25T07:20:43.860Z,96005.69
2023-05-25T07:21:46.074Z,96013.06
2023-05-25T07:22:49.006Z,96015.50
2023-05-25T07:23:51.030Z,96021.66
2023-05-25T07:24:53.942Z,96020.38
2023-05-25T07:25:56.962Z,96018.06
2023-05-25T07:26:58.955Z,96018.72
2023-05-25T07:28:01.923Z,96025.00
2023-05-25T07:29:05.488Z,96022.69
2023-05-25T07:30:08.627Z,96014.06
2023-05-25T07:31:11.699Z,96024.34
2023-05-25T07:32:13.731Z,96017.31
2023-05-25T07:33:16.765Z,96018.06
2023-05-25T07:34:18.701Z,96023.59
2023-05-25T07:35:21.688Z,96014.66
2023-05-25T07:36:25.191Z,96018.50
2023-05-25T07:37:28.942Z,96020.50
2023-05-25T07:38:31.002Z,96029.22
2023-05-25T07:39:34.102Z,96029.81
2023-05-25T07:40:36.741Z,96030.78
2023-05-25T07:41:39.939Z,96029.22
2023-05-25T07:42:41.908Z,96037.50
2023-05-25T07:43:44.930Z,96026.28
2023-05-25T07:44:47.021Z,96034.72
2023-05-25T07:45:50.751Z,96035.53
2023-05-25T07:46:52.864Z,96030.78
2023-05-25T07:47:56.079Z,96035.63
2023-05-25T07:48:59.863Z,96034.19
2023-05-25T07:50:03.198Z,96035.88
2023-05-25T07:51:05.190Z,96041.59
2023-05-25T07:52:09.472Z,96031.44
2023-05-25T07:53:11.404Z,96037.41
2023-05-25T07:54:14.755Z,96037.41
2023-05-25T07:55:19.178Z,96054.69
2023-05-25T07:56:21.390Z,96039.81
2023-05-25T07:57:25.278Z,96044.72
2023-05-25T07:58:28.236Z,96044.72
2023-05-25T07:59:30.140Z,96046.91
2023-05-25T08:00:33.159Z,96044.03
2023-05-25T08:01:35.992Z,96041.16
2023-05-25T08:02:39.082Z,96042.56
2023-05-25T08:04:51.176Z,96043.88
2023-05-25T08:05:53.279Z,96054.09
2023-05-25T08:06:56.248Z,96043.72
2023-05-25T08:07:59.607Z,96045.13
2023-05-25T08:09:04.597Z,96048.66
2023-05-25T08:10:09.651Z,96052.06
2023-05-25T08:11:11.657Z,96050.97
2023-05-25T08:12:34.326Z,96052.50
2023-05-25T08:13:37.611Z,96057.41
2023-05-25T08:14:40.871Z,96049.06
2023-05-25T08:15:42.931Z,96057.19
2023-05-25T08:16:46.141Z,96060.28
2023-05-25T08:17:50.941Z,96057.84
2023-05-25T08:18:54.032Z,96048.66
2023-05-25T08:19:56.128Z,96054.50
2023-05-25T08:20:59.050Z,96060.00
2023-05-25T08:22:01.980Z,96055.72
2023-05-25T08:23:06.257Z,96055.53
2023-05-25T08:24:08.943Z,96052.00
2023-05-25T08:25:12.042Z,96062.13
2023-05-25T08:26:34.089Z,96054.75
2023-05-25T08:27:38.117Z,96049.25
2023-05-25T08:28:41.255Z,96057.50
2023-05-25T08:29:44.223Z,96051.34
2023-05-25T08:30:46.261Z,96056.31
2023-05-25T08:31:50.719Z,96058.47
2023-05-25T08:32:52.725Z,96059.13
2023-05-25T08:33:55.746Z,96057.56
2023-05-25T08:34:57.709Z,96065.25
2023-05-25T08:36:00.776Z,96060.41
2023-05-25T08:37:02.739Z,96064.38
2023-05-25T08:38:07.031Z,96070.16
2023-05-25T08:39:10.341Z,96064.00
2023-05-25T08:40:16.130Z,96066.69
2023-05-25T08:41:19.730Z,96064.13
2023-05-25T08:42:23.661Z,96057.25
2023-05-25T08:43:26.651Z,96060.97
2023-05-25T08:44:29.819Z,96063.59
2023-05-25T08:45:34.804Z,96066.25
2023-05-25T08:46:39.506Z,96060.59
2023-05-25T08:47:43.441Z,96064.56
2023-05-25T08:48:49.272Z,96063.47
2023-05-25T08:49:54.199Z,96063.75
2023-05-25T08:50:59.960Z,96065.59
2023-05-25T08:52:03.277Z,96072.94
2023-05-25T08:53:12.066Z,96073.53
2023-05-25T08:54:17.655Z,96077.88
2023-05-25T08:55:23.709Z,96076.44
2023-05-25T08:56:30.569Z,96077.88
2023-05-25T08:57:44.984Z,96075.03
2023-05-25T08:58:54.754Z,96079.06
2023-05-25T09:00:04.048Z,96087.34
2023-05-25T09:01:09.578Z,96078.75
2023-05-25T09:02:22.590Z,96081.19
2023-05-25T09:03:25.464Z,96088.91
2023-05-25T09:04:29.831Z,96089.72
2023-05-25T09:05:32.449Z,96089.34
2023-05-25T09:06:36.789Z,96084.25
2023-05-25T09:07:39.156Z,96086.47
2023-05-25T09:08:44.844Z,96088.00
2023-05-25T09:09:48.189Z,96088.63
2023-05-25T09:10:52.066Z,96095.69
2023-05-25T09:11:55.689Z,96085.44
2023-05-25T09:13:06.571Z,96089.28
2023-05-25T09:14:15.035Z,96094.41
2023-05-25T09:15:18.311Z,96091.50
2023-05-25T09:16:22.826Z,96097.03
2023-05-25T09:17:25.946Z,96098.13
2023-05-25T09:18:28.997Z,96093.84
2023-05-25T09:19:31.145Z,96093.50
2023-05-25T09:20:34.497Z,96102.81
2023-05-25T09:21:37.932Z,96098.38
2023-05-25T09:22:40.786Z,96099.94
2023-05-25T09:23:45.729Z,96097.03
2023-05-25T09:24:48.891Z,96102.44
2023-05-25T09:25:52.327Z,96101.03
2023-05-25T09:26:54.320Z,96098.91
2023-05-25T09:27:58.373Z,96104.28
2023-05-25T09:29:01.710Z,96105.97
2023-05-25T09:30:06.066Z,96101.84
2023-05-25T09:31:09.016Z,96111.63
2023-05-25T09:32:12.026Z,96109.16
2023-05-25T09:33:17.666Z,96115.00
2023-05-25T09:34:21.262Z,96111.03
2023-05-25T09:35:25.271Z,96111.63
2023-05-25T09:36:27.682Z,96115.47
2023-05-25T09:37:31.402Z,96115.59
2023-05-25T09:38:33.993Z,96111.31
2023-05-25T09:39:39.101Z,96118.66
2023-05-25T09:40:43.167Z,96113.16
2023-05-25T09:41:47.604Z,96117.31
2023-05-25T09:42:50.700Z,96115.31
2023-05-25T09:44:02.087Z,96112.88
2023-05-25T09:45:12.188Z,96117.81
2023-05-25T09:46:15.396Z,96119.38
2023-05-25T09:47:18.770Z,96114.94
2023-05-25T09:48:22.184Z,96125.56
2023-05-25T09:49:25.150Z,96120.25
2023-05-25T09:50:28.130Z,96126.44
2023-05-25T09:51:33.169Z,96119.06
2023-05-25T09:52:36.417Z,96120.78
2023-05-25T09:53:39.450Z,96117.00
2023-05-25T09:54:46.045Z,96119.31
2023-05-25T09:55:53.695Z,96118.34
2023-05-25T09:56:56.318Z,96120.94
2023-05-25T09:57:59.363Z,96120.78
2023-05-25T09:59:02.591Z,96116.22
2023-05-25T10:00:05.759Z,96107.03
2023-05-25T10:01:14.566Z,96116.28
2023-05-25T10:02:17.675Z,96124.91
2023-05-25T10:03:21.844Z,96116.28
2023-05-25T10:04:24.951Z,96116.16
2023-05-25T10:05:28.104Z,96121.22
2023-05-25T10:06:33.245Z,96128.59
2023-05-25T10:07:40.415Z,96124.19
2023-05-25T10:08:43.674Z,96121.72
2023-05-25T10:09:51.573Z,96121.88
2023-05-25T10:10:54.530Z,96121.13
2023-05-25T10:11:57.618Z,96124.56
2023-05-25T10:13:01.713Z,96124.56
2023-05-25T10:14:09.522Z,96126.75
2023-05-25T10:15:13.432Z,96118.78
2023-05-25T10:16:18.622Z,96120.03
2023-05-25T10:17:24.385Z,96132.16
2023-05-25T10:18:29.901Z,96124.63
2023-05-25T10:19:37.029Z,96124.97
2023-05-25T10:20:40.434Z,96121.28
2023-05-25T10:21:45.522Z,96124.06
2023-05-25T10:22:55.113Z,96127.91
2023-05-25T10:24:04.729Z,96121.63
2023-05-25T10:25:16.053Z,96128.66
2023-05-25T10:26:21.441Z,96128.22
2023-05-25T10:27:27.583Z,96125.34
2023-05-25T10:28:36.631Z,96123.66
2023-05-25T10:29:40.062Z,96137.00
2023-05-25T10:30:44.029Z,96131.47
2023-05-25T10:31:47.025Z,96124.44
2023-05-25T10:32:50.224Z,96121.84
2023-05-25T10:33:52.764Z,96122.94
2023-05-25T10:34:58.019Z,96131.69
2023-05-25T10:36:10.199Z,96123.41
2023-05-25T10:37:15.886Z,96126.31
2023-05-25T10:38:19.901Z,96130.31
2023-05-25T10:39:22.675Z,96136.75
2023-05-25T10:40:27.479Z,96129.69
2023-05-25T10:41:29.496Z,96127.88
2023-05-25T10:42:34.436Z,96125.44
2023-05-25T10:43:38.348Z,96118.38
2023-05-25T10:44:42.359Z,96127.56
2023-05-25T10:45:45.860Z,96137.38
2023-05-25T10:46:49.571Z,96114.66
2023-05-25T10:47:52.941Z,96123.88
2023-05-25T10:49:00.694Z,96125.88
2023-05-25T10:50:04.387Z,96123.56
2023-05-25T10:51:09.061Z,96127.38
2023-05-25T10:52:19.226Z,96129.09
2023-05-25T10:53:21.437Z,96123.72
2023-05-25T10:54:24.537Z,96134.16
2023-05-25T10:55:31.838Z,96132.50
2023-05-25T10:56:34.871Z,96127.72
2023-05-25T10:57:36.923Z,96129.56
2023-05-25T10:58:43.349Z,96139.25
2023-05-25T10:59:49.345Z,96130.06
2023-05-25T11:00:59.881Z,96131.28
2023-05-25T11:02:08.335Z,96145.09
2023-05-25T11:03:12.209Z,96131.09
2023-05-25T11:04:16.160Z,96123.25
2023-05-25T11:05:42.810Z,96122.53
2023-05-25T11:07:08.368Z,96139.09
2023-05-25T11:08:12.617Z,96130.81
2023-05-25T11:09:24.672Z,96136.22
2023-05-25T11:10:46.022Z,96123.81
2023-05-25T11:12:05.824Z,96131.34
2023-05-25T11:13:37.000Z,96132.41
2023-05-25T11:14:43.484Z,96130.41
2023-05-25T11:15:45.717Z,96134.75
2023-05-25T11:17:06.300Z,96127.25
2023-05-25T11:18:14.968Z,96128.09
2023-05-25T11:19:18.340Z,96133.19
2023-05-25T11:20:24.284Z,96127.09
2023-05-25T11:21:45.541Z,96124.97
2023-05-25T11:22:52.394Z,96123.72
2023-05-25T11:23:57.457Z,96119.75
2023-05-25T11:25:01.637Z,96124.97
2023-05-25T11:26:06.683Z,96122.53
2023-05-25T11:27:09.815Z,96126.19
2023-05-25T11:28:12.562Z,96117.88
2023-05-25T11:29:16.834Z,96113.47
2023-05-25T11:30:18.928Z,96120.53
2023-05-25T11:31:24.415Z,96115.31
2023-05-25T11:32:28.551Z,96118.84
2023-05-25T11:33:30.825Z,96121.16
2023-05-25T11:34:33.799Z,96125.91
2023-05-25T11:35:37.331Z,96113.31
2023-05-25T11:36:41.399Z,96113.31
2023-05-25T11:37:50.706Z,96119.44
2023-05-25T11:39:04.991Z,96117.75
2023-05-25T11:40:12.293Z,96120.41
2023-05-25T11:41:18.973Z,96115.47
2023-05-25T11:42:23.835Z,96120.25
2023-05-25T11:43:26.991Z,96116.09
2023-05-25T11:44:31.239Z,96111.50
2023-05-25T11:45:34.552Z,96113.03
2023-05-25T11:46:38.786Z,96114.09
2023-05-25T11:47:43.138Z,96115.22
2023-05-25T11:48:47.505Z,96108.44
2023-05-25T11:49:50.637Z,96118.28
2023-05-25T11:51:04.607Z,96114.31
2023-05-25T11:52:08.149Z,96111.84
2023-05-25T11:53:11.756Z,96104.78
2023-05-25T11:54:23.129Z,96114.94
2023-05-25T11:55:26.106Z,96109.72
2023-05-25T11:56:35.776Z,96115.53
2023-05-25T11:57:40.371Z,96104.03
2023-05-25T11:58:44.555Z,96107.72
2023-05-25T11:59:51.197Z,96106.03
2023-05-25T12:00:53.767Z,96102.50
2023-05-25T12:01:57.877Z,96107.56
2023-05-25T12:02:59.942Z,96102.03
2023-05-25T12:04:10.548Z,96099.91
2023-05-25T12:05:12.626Z,96099.44
2023-05-25T12:06:26.561Z,96095.94
2023-05-25T12:07:30.775Z,96097.13
2023-05-25T12:08:33.017Z,96097.59
2023-05-25T12:09:36.724Z,96094.25
2023-05-25T12:10:51.361Z,96099.28
2023-05-25T12:11:55.884Z,96092.84
2023-05-25T12:13:04.678Z,96097.13
2023-05-25T12:14:07.593Z,96104.38
2023-05-25T12:15:13.204Z,96098.41
2023-05-25T12:16:15.228Z,96098.72
2023-05-25T12:17:20.136Z,96102.66
2023-05-25T12:18:23.413Z,96100.84
2023-05-25T12:19:25.765Z,96093.00
2023-05-25T12:20:28.903Z,96098.09
2023-05-25T12:21:31.971Z,96105.16
2023-05-25T12:22:35.403Z,96096.53
2023-05-25T12:23:37.737Z,96098.25
2023-05-25T12:24:41.062Z,96100.25
2023-05-25T12:25:50.299Z,96098.75
2023-05-25T12:26:57.439Z,96098.13
2023-05-25T12:28:12.518Z,96090.16
2023-05-25T12:29:15.741Z,96089.34
2023-05-25T12:30:17.817Z,96094.44
2023-05-25T12:31:22.063Z,96091.22
2023-05-25T12:32:25.040Z,96094.75
2023-05-25T12:33:26.971Z,96086.91
2023-05-25T12:34:29.953Z,96081.66
2023-05-25T12:35:46.771Z,96088.91
2023-05-25T12:36:51.630Z,96087.69
2023-05-25T12:38:12.192Z,96087.69
2023-05-25T12:39:16.257Z,96093.22
2023-05-25T12:40:20.860Z,96091.97